Terminal Aerodrome Forecast
Issued by NWS Buffalo, NY

Home | Current Version | Previous Version | Text Only | Print | Product List | Glossary On
Versions: 1 2 3 4 5 6 7 8 9 10 11 12 13 14 15 16 17 18 19 20 21 22 23 24 25 26 27
000
FTUS41 KBUF 230500 RRA
TAFART
TAF
KART 230543Z 2306/2406 22009KT 2SM -RA OVC005
     FM230800 33010KT 5SM -DZ OVC005
     FM231300 34012G18KT P6SM OVC008
     FM231600 33014KT P6SM BKN025
     FM232000 33016KT P6SM SCT035
     FM240400 32009KT P6SM SKC=

USA.gov is the U.S. government's official web portal to all federal, state and local government web resources and services.